createdAt,value
2018-07-04T00:02:26.974Z,93971.34
2018-07-04T00:05:06.563Z,93960.59
2018-07-04T00:07:45.981Z,93959.45
2018-07-04T00:10:25.315Z,93956.02
2018-07-04T00:13:04.676Z,93955.56
2018-07-04T00:15:43.991Z,93950.92
2018-07-04T00:18:23.382Z,93950.37
2018-07-04T00:21:02.730Z,93949.05
2018-07-04T00:23:42.289Z,93948.17
2018-07-04T00:26:21.720Z,93947.80
2018-07-04T00:29:01.359Z,93944.93
2018-07-04T00:31:40.690Z,93939.33
2018-07-04T00:34:20.062Z,93936.13
2018-07-04T00:36:59.543Z,93927.58
2018-07-04T00:39:39.045Z,93931.80
2018-07-04T00:42:18.490Z,93935.11
2018-07-04T00:44:57.870Z,93936.59
2018-07-04T00:47:37.262Z,93941.91
2018-07-04T00:50:16.662Z,93939.20
2018-07-04T00:52:56.206Z,93943.61
2018-07-04T00:55:35.595Z,93940.09
2018-07-04T00:58:15.011Z,93947.31
2018-07-04T01:00:54.337Z,93942.00
2018-07-04T01:03:33.826Z,93930.70
2018-07-04T01:06:13.262Z,93930.62
2018-07-04T01:08:52.654Z,93931.66
2018-07-04T01:11:32.002Z,93923.23
2018-07-04T01:14:11.391Z,93928.05
2018-07-04T01:16:50.863Z,93925.85
2018-07-04T01:19:30.231Z,93921.78
2018-07-04T01:22:09.743Z,93923.40
2018-07-04T01:24:49.277Z,93931.28
2018-07-04T01:27:28.576Z,93921.91
2018-07-04T01:30:08.506Z,93916.52
2018-07-04T01:32:48.118Z,93916.80
2018-07-04T01:35:27.994Z,93911.95
2018-07-04T01:38:07.470Z,93912.53
2018-07-04T01:40:46.766Z,93915.26
2018-07-04T01:43:26.262Z,93908.23
2018-07-04T01:46:06.078Z,93916.48
2018-07-04T01:48:45.585Z,93911.08
2018-07-04T01:51:24.980Z,93910.98
2018-07-04T01:54:04.455Z,93905.09
2018-07-04T01:56:43.878Z,93912.96
2018-07-04T01:59:23.114Z,93910.02
2018-07-04T02:02:02.706Z,93913.93
2018-07-04T02:04:42.106Z,93906.00
2018-07-04T02:07:21.542Z,93911.02
2018-07-04T02:10:01.063Z,93907.03
2018-07-04T02:12:41.305Z,93909.00
2018-07-04T02:15:20.726Z,93903.90
2018-07-04T02:18:00.169Z,93893.86
2018-07-04T02:20:39.623Z,93891.84
2018-07-04T02:23:18.949Z,93903.30
2018-07-04T02:25:58.173Z,93901.23
2018-07-04T02:28:37.588Z,93908.05
2018-07-04T02:31:17.108Z,93904.92
2018-07-04T02:33:56.439Z,93915.82
2018-07-04T02:36:35.768Z,93915.42
2018-07-04T02:39:15.150Z,93916.01
2018-07-04T02:41:54.607Z,93918.66
2018-07-04T02:44:34.286Z,93915.53
2018-07-04T02:47:19.480Z,93914.20
2018-07-04T02:49:59.055Z,93910.70
2018-07-04T02:52:38.457Z,93905.45
2018-07-04T02:55:18.064Z,93909.91
2018-07-04T02:57:57.710Z,93912.08
2018-07-04T03:00:37.342Z,93909.62
2018-07-04T03:03:16.583Z,93910.94
2018-07-04T03:05:56.051Z,93913.59
2018-07-04T03:08:35.611Z,93912.78
2018-07-04T03:11:15.190Z,93910.58
2018-07-04T03:13:54.762Z,93912.45
2018-07-04T03:16:34.099Z,93916.77
2018-07-04T03:19:13.403Z,93913.89
2018-07-04T03:21:52.700Z,93918.67
2018-07-04T03:24:32.127Z,93914.33
2018-07-04T03:27:11.938Z,93909.53
2018-07-04T03:29:51.423Z,93904.71
2018-07-04T03:32:30.957Z,93904.13
2018-07-04T03:35:10.451Z,93907.15
2018-07-04T03:37:49.890Z,93899.41
2018-07-04T03:40:29.394Z,93901.95
2018-07-04T03:43:09.939Z,93906.75
2018-07-04T03:45:49.462Z,93906.97
2018-07-04T03:48:28.997Z,93906.33
2018-07-04T03:51:08.406Z,93911.05
2018-07-04T03:53:47.911Z,93908.07
2018-07-04T03:56:27.303Z,93902.40
2018-07-04T03:59:06.616Z,93907.15
2018-07-04T04:01:46.071Z,93905.93
2018-07-04T04:04:25.775Z,93906.43
2018-07-04T04:07:05.238Z,93910.56
2018-07-04T04:09:44.531Z,93914.09
2018-07-04T04:12:23.785Z,93916.31
2018-07-04T04:15:03.169Z,93907.20
2018-07-04T04:17:42.621Z,93911.92
2018-07-04T04:20:22.258Z,93912.15
2018-07-04T04:23:01.690Z,93909.38
2018-07-04T04:25:40.934Z,93914.02
2018-07-04T04:28:20.431Z,93917.78
2018-07-04T04:31:00.002Z,93911.66
2018-07-04T04:33:39.330Z,93914.97
2018-07-04T04:36:18.832Z,93913.45
2018-07-04T04:38:58.118Z,93913.45
2018-07-04T04:41:37.558Z,93919.72
2018-07-04T04:44:16.934Z,93913.64
2018-07-04T04:46:56.454Z,93922.95
2018-07-04T04:49:35.915Z,93918.92
2018-07-04T04:52:15.183Z,93920.40
2018-07-04T04:54:54.721Z,93919.91
2018-07-04T04:57:34.030Z,93921.86
2018-07-04T05:00:13.271Z,93925.87
2018-07-04T05:02:52.790Z,93923.05
2018-07-04T05:05:32.128Z,93922.48
2018-07-04T05:08:11.542Z,93921.23
2018-07-04T05:10:51.045Z,93919.75
2018-07-04T05:13:30.426Z,93924.63
2018-07-04T05:16:09.799Z,93928.77
2018-07-04T05:18:49.252Z,93929.42
2018-07-04T05:21:28.570Z,93931.45
2018-07-04T05:24:07.986Z,93929.84
2018-07-04T05:26:47.409Z,93929.41
2018-07-04T05:29:26.951Z,93933.89
2018-07-04T05:32:06.372Z,93933.80
2018-07-04T05:34:45.991Z,93923.91
2018-07-04T05:37:25.526Z,93917.16
2018-07-04T05:40:04.952Z,93918.59
2018-07-04T05:42:44.438Z,93921.98
2018-07-04T05:45:24.119Z,93921.34
2018-07-04T05:48:03.742Z,93925.61
2018-07-04T05:50:43.114Z,93925.70
2018-07-04T05:53:22.746Z,93934.31
2018-07-04T05:56:02.095Z,93933.22
2018-07-04T05:58:41.438Z,93941.75
2018-07-04T06:01:20.905Z,93942.27
2018-07-04T06:04:00.178Z,93948.59
2018-07-04T06:06:39.531Z,93945.80
2018-07-04T06:09:18.932Z,93950.84
2018-07-04T06:11:58.354Z,93954.92
2018-07-04T06:14:37.625Z,93959.03
2018-07-04T06:17:16.906Z,93955.97
2018-07-04T06:19:56.350Z,93952.88
2018-07-04T06:22:35.899Z,93954.59
2018-07-04T06:25:15.322Z,93950.26
2018-07-04T06:27:54.733Z,93953.38
2018-07-04T06:30:34.027Z,93942.68
2018-07-04T06:33:13.779Z,93945.93
2018-07-04T06:35:53.253Z,93949.25
2018-07-04T06:38:26.438Z,93941.21
2018-07-04T06:40:53.467Z,93939.45
2018-07-04T06:43:20.476Z,93938.98
2018-07-04T06:45:47.486Z,93936.47
2018-07-04T06:48:14.488Z,93943.22
2018-07-04T06:50:41.503Z,93939.64
2018-07-04T06:53:08.530Z,93937.95
2018-07-04T06:55:35.543Z,93936.63
2018-07-04T06:58:02.566Z,93937.27
2018-07-04T07:00:29.588Z,93947.38
2018-07-04T07:03:02.707Z,93944.09
2018-07-04T07:05:42.190Z,93948.25
2018-07-04T07:08:21.669Z,93940.16
2018-07-04T07:11:00.963Z,93946.59
2018-07-04T07:13:40.379Z,93956.73
2018-07-04T07:16:20.913Z,93965.53
2018-07-04T07:19:00.238Z,93969.33
2018-07-04T07:21:39.699Z,93961.53
2018-07-04T07:24:19.240Z,93959.87
2018-07-04T07:26:58.590Z,93956.53
2018-07-04T07:29:37.917Z,93957.45
2018-07-04T07:32:17.452Z,93967.09
2018-07-04T07:34:56.926Z,93952.52
2018-07-04T07:37:36.390Z,93951.11
2018-07-04T07:40:16.174Z,93947.63
2018-07-04T07:42:55.846Z,93958.59
2018-07-04T07:45:35.362Z,93980.48
2018-07-04T07:48:14.777Z,93994.94
2018-07-04T07:50:54.187Z,94006.45
2018-07-04T07:53:33.705Z,94007.42
2018-07-04T07:56:13.264Z,94002.58
2018-07-04T07:58:52.738Z,93999.32
2018-07-04T08:01:32.134Z,93986.87
2018-07-04T08:04:11.694Z,93986.60
2018-07-04T08:06:51.094Z,93982.89
2018-07-04T08:09:30.494Z,93981.97
2018-07-04T08:12:10.008Z,93991.99
2018-07-04T08:14:49.566Z,94002.17
2018-07-04T08:17:29.188Z,93998.45
2018-07-04T08:20:08.461Z,94001.31
2018-07-04T08:22:47.766Z,93998.65
2018-07-04T08:25:27.214Z,93999.50
2018-07-04T08:28:06.643Z,94005.02
2018-07-04T08:30:45.951Z,94001.59
2018-07-04T08:33:25.499Z,94007.16
2018-07-04T08:36:04.951Z,94006.24
2018-07-04T08:38:44.566Z,94015.80
2018-07-04T08:41:23.778Z,94009.71
2018-07-04T08:44:03.063Z,94000.39
2018-07-04T08:46:42.431Z,94003.88
2018-07-04T08:49:21.662Z,94008.80
2018-07-04T08:52:01.175Z,94011.33
2018-07-04T08:54:40.631Z,94009.23
2018-07-04T08:57:20.279Z,94006.58
2018-07-04T08:59:59.654Z,94016.72
2018-07-04T09:02:39.088Z,94018.78
2018-07-04T09:05:18.334Z,94022.05
2018-07-04T09:07:57.762Z,94019.76
2018-07-04T09:10:37.215Z,94024.36
2018-07-04T09:13:16.733Z,94039.58
2018-07-04T09:15:56.190Z,94039.98
2018-07-04T09:18:35.525Z,94040.63
2018-07-04T09:21:14.802Z,94053.04
2018-07-04T09:23:54.094Z,94055.17
2018-07-04T09:26:33.388Z,94058.48
2018-07-04T09:29:12.862Z,94072.50
2018-07-04T09:31:52.290Z,94079.66
2018-07-04T09:34:31.762Z,94073.98
2018-07-04T09:37:11.136Z,94068.30
2018-07-04T09:39:50.514Z,94072.89
2018-07-04T09:42:30.072Z,94087.16
2018-07-04T09:45:09.445Z,94088.16
2018-07-04T09:47:48.905Z,94088.56
2018-07-04T09:50:28.362Z,94092.08
2018-07-04T09:53:07.768Z,94093.52
2018-07-04T09:55:47.024Z,94091.67
2018-07-04T09:58:26.550Z,94087.37
2018-07-04T10:01:11.713Z,94089.62
2018-07-04T10:03:51.360Z,94087.40
2018-07-04T10:06:30.753Z,94079.05
2018-07-04T10:09:10.087Z,94071.27
2018-07-04T10:11:49.318Z,94055.20
2018-07-04T10:14:28.871Z,94057.86
2018-07-04T10:17:08.275Z,94047.02
2018-07-04T10:19:47.679Z,94043.15
2018-07-04T10:22:27.086Z,94041.16
2018-07-04T10:25:06.552Z,94034.43
2018-07-04T10:27:45.878Z,94030.31
2018-07-04T10:30:25.376Z,94033.22
2018-07-04T10:33:04.686Z,94031.86
2018-07-04T10:35:44.286Z,94030.31
2018-07-04T10:38:23.602Z,94029.00
2018-07-04T10:41:02.805Z,94015.10
2018-07-04T10:43:42.270Z,94003.45
2018-07-04T10:46:21.865Z,93992.27
2018-07-04T10:49:01.227Z,93986.58
2018-07-04T10:51:40.832Z,93986.47
2018-07-04T10:54:20.462Z,93981.27
2018-07-04T10:56:59.863Z,93972.84
2018-07-04T10:59:39.222Z,93970.17
2018-07-04T11:02:18.626Z,93969.92
2018-07-04T11:04:58.310Z,93978.16
2018-07-04T11:07:37.782Z,93982.80
2018-07-04T11:10:17.059Z,93978.63
2018-07-04T11:12:56.495Z,93971.13
2018-07-04T11:15:35.771Z,93966.66
2018-07-04T11:18:15.483Z,93969.56
2018-07-04T11:20:54.929Z,93969.89
2018-07-04T11:23:34.449Z,93965.35
2018-07-04T11:26:14.051Z,93961.89
2018-07-04T11:28:53.508Z,93960.28
2018-07-04T11:31:33.030Z,93961.35
2018-07-04T11:34:12.309Z,93960.81
2018-07-04T11:36:51.761Z,93957.77
2018-07-04T11:39:31.118Z,93943.48
2018-07-04T11:42:10.663Z,93948.26
2018-07-04T11:44:49.967Z,93939.34
2018-07-04T11:47:23.214Z,93942.80
2018-07-04T11:49:50.275Z,93935.83
2018-07-04T11:52:17.295Z,93937.94
2018-07-04T11:54:44.354Z,93940.21
2018-07-04T11:57:11.658Z,93943.28
2018-07-04T11:59:38.698Z,93943.04
2018-07-04T12:02:05.749Z,93944.56
2018-07-04T12:04:38.941Z,93942.98
2018-07-04T12:07:12.044Z,93936.80
2018-07-04T12:09:39.778Z,93936.27
2018-07-04T12:12:06.855Z,93926.97
2018-07-04T12:14:33.918Z,93930.89
2018-07-04T12:17:00.930Z,93930.02
2018-07-04T12:19:28.096Z,93927.52
2018-07-04T12:21:55.142Z,93935.35
2018-07-04T12:24:22.195Z,93937.89
2018-07-04T12:26:49.305Z,93938.37
2018-07-04T12:29:16.398Z,93938.45
2018-07-04T12:31:43.426Z,93936.95
2018-07-04T12:34:10.470Z,93939.70
2018-07-04T12:36:37.490Z,93947.10
2018-07-04T12:39:04.824Z,93938.50
2018-07-04T12:41:31.872Z,93927.52
2018-07-04T12:43:58.903Z,93921.49
2018-07-04T12:46:25.926Z,93917.77
2018-07-04T12:48:58.631Z,93916.75
2018-07-04T12:51:25.652Z,93913.11
2018-07-04T12:53:57.223Z,93911.40
2018-07-04T12:56:30.627Z,93909.88
2018-07-04T12:59:09.951Z,93901.33
2018-07-04T13:01:49.259Z,93904.67
2018-07-04T13:04:28.498Z,93898.64
2018-07-04T13:07:07.982Z,93895.22
2018-07-04T13:09:47.400Z,93898.25
2018-07-04T13:12:26.852Z,93901.48
2018-07-04T13:15:06.454Z,93894.26
2018-07-04T13:17:45.778Z,93896.70
2018-07-04T13:20:25.302Z,93895.34
2018-07-04T13:23:04.890Z,93892.66
2018-07-04T13:25:44.378Z,93895.14
2018-07-04T13:28:23.770Z,93885.47
2018-07-04T13:31:03.347Z,93883.52
2018-07-04T13:33:43.214Z,93892.01
2018-07-04T13:36:22.899Z,93905.27
2018-07-04T13:39:02.529Z,93900.78
2018-07-04T13:41:41.991Z,93893.77
2018-07-04T13:44:21.484Z,93902.84
2018-07-04T13:47:01.028Z,93921.05
2018-07-04T13:49:40.555Z,93911.66
2018-07-04T13:52:20.447Z,93896.75
2018-07-04T13:54:59.889Z,93901.93
2018-07-04T13:57:39.259Z,93901.11
2018-07-04T14:00:18.650Z,93904.53
2018-07-04T14:02:57.923Z,93913.01
2018-07-04T14:05:37.561Z,93906.21
2018-07-04T14:08:17.085Z,93910.94
2018-07-04T14:10:56.447Z,93915.91
2018-07-04T14:13:35.780Z,93913.33
2018-07-04T14:16:15.120Z,93915.33
2018-07-04T14:18:54.479Z,93908.12
2018-07-04T14:21:33.770Z,93898.86
2018-07-04T14:24:13.031Z,93893.96
2018-07-04T14:26:52.498Z,93903.92
2018-07-04T14:29:32.069Z,93900.98
2018-07-04T14:32:11.373Z,93891.59
2018-07-04T14:34:51.079Z,93886.86
2018-07-04T14:37:30.426Z,93894.34
2018-07-04T14:40:09.826Z,93895.45
2018-07-04T14:42:49.271Z,93895.42
2018-07-04T14:45:28.875Z,93893.83
2018-07-04T14:48:08.399Z,93884.05
2018-07-04T14:50:47.799Z,93886.52
2018-07-04T14:53:27.880Z,93889.66
2018-07-04T14:56:07.374Z,93886.78
2018-07-04T14:58:46.875Z,93887.86
2018-07-04T15:01:25.983Z,93875.58
2018-07-04T15:04:05.413Z,93861.14
2018-07-04T15:06:44.746Z,93848.63
2018-07-04T15:09:24.341Z,93851.92
2018-07-04T15:12:03.848Z,93850.72
2018-07-04T15:14:43.301Z,93842.35
2018-07-04T15:17:22.791Z,93840.36
2018-07-04T15:20:02.434Z,93833.16
2018-07-04T15:22:41.940Z,93833.01
2018-07-04T15:25:21.297Z,93825.02
2018-07-04T15:28:00.511Z,93816.80
2018-07-04T15:30:39.942Z,93820.09
2018-07-04T15:33:19.542Z,93822.10
2018-07-04T15:35:58.967Z,93838.62
2018-07-04T15:38:38.181Z,93849.51
2018-07-04T15:41:18.622Z,93853.72
2018-07-04T15:43:58.268Z,93847.03
2018-07-04T15:46:37.666Z,93834.91
2018-07-04T15:49:18.470Z,93836.13
2018-07-04T15:51:58.366Z,93835.94
2018-07-04T15:54:38.422Z,93836.69
2018-07-04T15:57:17.740Z,93833.44
2018-07-04T15:59:57.058Z,93828.38
2018-07-04T16:02:36.508Z,93820.91
2018-07-04T16:05:15.850Z,93811.42
2018-07-04T16:07:55.127Z,93811.16
2018-07-04T16:10:34.587Z,93810.14
2018-07-04T16:13:14.003Z,93812.50
2018-07-04T16:15:53.379Z,93816.20
2018-07-04T16:18:32.882Z,93811.36
2018-07-04T16:21:12.202Z,93799.91
2018-07-04T16:23:51.618Z,93802.67
2018-07-04T16:26:31.194Z,93790.94
2018-07-04T16:29:10.853Z,93795.02
2018-07-04T16:31:50.298Z,93799.66
2018-07-04T16:34:29.619Z,93798.70
2018-07-04T16:37:08.873Z,93797.98
2018-07-04T16:39:48.390Z,93797.69
2018-07-04T16:42:27.786Z,93805.14
2018-07-04T16:45:07.286Z,93795.81
2018-07-04T16:47:46.611Z,93800.72
2018-07-04T16:50:26.022Z,93790.83
2018-07-04T16:53:05.419Z,93794.59
2018-07-04T16:55:44.643Z,93782.38
2018-07-04T16:58:23.971Z,93786.28
2018-07-04T17:01:03.327Z,93775.55
2018-07-04T17:03:42.825Z,93775.73
2018-07-04T17:06:22.228Z,93777.54
2018-07-04T17:09:01.567Z,93771.38
2018-07-04T17:11:40.775Z,93766.25
2018-07-04T17:14:20.293Z,93764.23
2018-07-04T17:16:59.892Z,93758.94
2018-07-04T17:19:39.288Z,93766.01
2018-07-04T17:22:18.638Z,93765.52
2018-07-04T17:24:58.207Z,93765.94
2018-07-04T17:27:37.727Z,93759.55
2018-07-04T17:30:17.534Z,93751.89
2018-07-04T17:32:57.035Z,93759.65
2018-07-04T17:35:36.420Z,93757.88
2018-07-04T17:38:15.928Z,93760.20
2018-07-04T17:40:55.610Z,93758.34
2018-07-04T17:43:35.154Z,93755.57
2018-07-04T17:46:14.455Z,93751.08
2018-07-04T17:48:54.110Z,93759.45
2018-07-04T17:51:33.594Z,93764.77
2018-07-04T17:54:12.951Z,93765.78
2018-07-04T17:56:52.559Z,93764.51
2018-07-04T17:59:31.951Z,93757.59
2018-07-04T18:02:11.419Z,93757.64
2018-07-04T18:04:50.969Z,93760.09
2018-07-04T18:07:30.547Z,93758.05
2018-07-04T18:10:10.099Z,93764.75
2018-07-04T18:12:49.761Z,93769.05
2018-07-04T18:15:29.191Z,93761.91
2018-07-04T18:18:08.538Z,93762.53
2018-07-04T18:20:48.015Z,93764.73
2018-07-04T18:23:27.590Z,93776.54
2018-07-04T18:26:06.800Z,93787.00
2018-07-04T18:28:46.052Z,93798.13
2018-07-04T18:31:25.609Z,93804.83
2018-07-04T18:34:04.871Z,93804.41
2018-07-04T18:36:44.176Z,93803.34
2018-07-04T18:39:23.835Z,93807.33
2018-07-04T18:42:03.260Z,93802.00
2018-07-04T18:44:42.680Z,93804.14
2018-07-04T18:47:22.133Z,93811.11
2018-07-04T18:50:01.580Z,93805.48
2018-07-04T18:52:41.046Z,93799.95
2018-07-04T18:55:20.495Z,93803.97
2018-07-04T18:57:59.959Z,93814.93
2018-07-04T19:00:39.690Z,93810.70
2018-07-04T19:03:19.187Z,93816.65
2018-07-04T19:05:58.412Z,93811.91
2018-07-04T19:08:37.930Z,93802.83
2018-07-04T19:11:17.275Z,93807.66
2018-07-04T19:13:56.615Z,93808.73
2018-07-04T19:16:36.074Z,93813.83
2018-07-04T19:19:15.469Z,93818.39
2018-07-04T19:21:54.755Z,93820.05
2018-07-04T19:24:34.079Z,93821.13
2018-07-04T19:27:13.537Z,93821.65
2018-07-04T19:29:52.716Z,93823.28
2018-07-04T19:32:32.407Z,93821.37
2018-07-04T19:35:11.898Z,93833.98
2018-07-04T19:37:51.402Z,93838.25
2018-07-04T19:40:30.699Z,93837.73
2018-07-04T19:43:10.275Z,93829.17
2018-07-04T19:45:49.711Z,93830.49
2018-07-04T19:48:29.287Z,93827.84
2018-07-04T19:51:08.765Z,93827.05
2018-07-04T19:53:48.098Z,93828.64
2018-07-04T19:56:27.454Z,93839.89
2018-07-04T19:59:06.816Z,93839.83
2018-07-04T20:01:46.279Z,93833.97
2018-07-04T20:04:25.579Z,93830.47
2018-07-04T20:07:04.911Z,93832.56
2018-07-04T20:09:44.165Z,93831.42
2018-07-04T20:12:23.777Z,93838.02
2018-07-04T20:15:03.202Z,93827.54
2018-07-04T20:17:42.563Z,93825.66
2018-07-04T20:20:21.974Z,93812.52
2018-07-04T20:23:01.255Z,93809.17
2018-07-04T20:25:40.584Z,93807.05
2018-07-04T20:28:19.939Z,93797.33
2018-07-04T20:30:59.256Z,93804.78
2018-07-04T20:33:38.787Z,93805.81
2018-07-04T20:36:19.234Z,93807.67
2018-07-04T20:38:58.632Z,93803.13
2018-07-04T20:41:38.255Z,93805.95
2018-07-04T20:44:17.755Z,93808.98
2018-07-04T20:46:57.144Z,93808.50
2018-07-04T20:49:36.558Z,93805.55
2018-07-04T20:52:16.905Z,93803.30
2018-07-04T20:54:56.490Z,93803.80
2018-07-04T20:57:36.102Z,93795.38
2018-07-04T21:00:15.565Z,93796.06
2018-07-04T21:02:54.902Z,93787.16
2018-07-04T21:05:34.261Z,93794.03
2018-07-04T21:08:13.806Z,93804.09
2018-07-04T21:10:53.435Z,93807.98
2018-07-04T21:13:32.892Z,93803.46
2018-07-04T21:16:12.255Z,93805.14
2018-07-04T21:18:52.027Z,93803.46
2018-07-04T21:21:31.550Z,93806.08
2018-07-04T21:24:11.174Z,93797.47
2018-07-04T21:26:50.502Z,93799.17
2018-07-04T21:29:29.943Z,93795.42
2018-07-04T21:32:09.233Z,93796.87
2018-07-04T21:34:48.660Z,93793.64
2018-07-04T21:37:28.196Z,93793.27
2018-07-04T21:40:07.634Z,93790.28
2018-07-04T21:42:47.122Z,93786.86
2018-07-04T21:45:26.539Z,93788.95
2018-07-04T21:48:05.995Z,93791.84
2018-07-04T21:50:45.418Z,93781.72
2018-07-04T21:53:25.106Z,93774.70
2018-07-04T21:56:04.554Z,93779.54
2018-07-04T21:58:43.891Z,93779.59
2018-07-04T22:01:23.282Z,93781.20
2018-07-04T22:04:02.821Z,93772.59
2018-07-04T22:06:42.287Z,93765.32
2018-07-04T22:09:21.812Z,93760.81
2018-07-04T22:12:01.283Z,93753.50
2018-07-04T22:14:40.725Z,93746.52
2018-07-04T22:17:20.181Z,93745.27
2018-07-04T22:19:59.529Z,93742.22
2018-07-04T22:22:38.906Z,93742.76
2018-07-04T22:25:18.282Z,93735.96
2018-07-04T22:27:57.567Z,93730.71
2018-07-04T22:30:36.948Z,93725.55
2018-07-04T22:33:16.164Z,93721.41
2018-07-04T22:35:55.679Z,93722.66
2018-07-04T22:38:35.158Z,93715.72
2018-07-04T22:41:14.742Z,93715.16
2018-07-04T22:43:54.131Z,93719.36
2018-07-04T22:46:33.410Z,93713.83
2018-07-04T22:49:12.985Z,93714.88
2018-07-04T22:51:52.494Z,93710.69
2018-07-04T22:54:32.034Z,93716.30
2018-07-04T22:57:11.390Z,93721.80
2018-07-04T22:59:50.766Z,93726.08
2018-07-04T23:02:30.091Z,93722.27
2018-07-04T23:05:09.342Z,93725.84
2018-07-04T23:07:48.602Z,93728.73
2018-07-04T23:10:27.907Z,93724.61
2018-07-04T23:13:07.287Z,93727.39
2018-07-04T23:15:46.615Z,93726.58
2018-07-04T23:18:25.958Z,93726.89
2018-07-04T23:21:05.277Z,93735.55
2018-07-04T23:23:44.563Z,93746.62
2018-07-04T23:26:23.979Z,93744.23
2018-07-04T23:29:03.386Z,93740.00
2018-07-04T23:31:42.818Z,93747.08
2018-07-04T23:34:22.326Z,93749.71
2018-07-04T23:37:01.782Z,93755.55
2018-07-04T23:39:41.298Z,93756.45
2018-07-04T23:42:20.666Z,93759.88
2018-07-04T23:45:00.306Z,93752.59
2018-07-04T23:47:39.866Z,93758.79
2018-07-04T23:50:19.395Z,93760.17
2018-07-04T23:52:58.931Z,93754.94
2018-07-04T23:55:38.379Z,93747.20
2018-07-04T23:58:18.938Z,93752.43
